sensor_id;sensor_type;location;lat;lon;timestamp;temperature;humidity
10660;DHT22;5378;53.206;13.316;2024-03-22T00:01:17;8.70;99.90
10660;DHT22;5378;53.206;13.316;2024-03-22T00:04:03;8.70;99.90
10660;DHT22;5378;53.206;13.316;2024-03-22T00:06:49;8.70;99.90
10660;DHT22;5378;53.206;13.316;2024-03-22T00:09:34;8.70;99.90
10660;DHT22;5378;53.206;13.316;2024-03-22T00:12:18;8.70;99.90
10660;DHT22;5378;53.206;13.316;2024-03-22T00:15:03;8.70;99.90
10660;DHT22;5378;53.206;13.316;2024-03-22T00:17:48;8.70;99.90
10660;DHT22;5378;53.206;13.316;2024-03-22T00:20:32;8.60;99.90
10660;DHT22;5378;53.206;13.316;2024-03-22T00:23:17;8.50;99.90
10660;DHT22;5378;53.206;13.316;2024-03-22T00:26:01;8.40;99.90
10660;DHT22;5378;53.206;13.316;2024-03-22T00:28:45;8.40;99.90
10660;DHT22;5378;53.206;13.316;2024-03-22T00:31:30;8.40;99.90
10660;DHT22;5378;53.206;13.316;2024-03-22T00:34:14;8.40;99.90
10660;DHT22;5378;53.206;13.316;2024-03-22T00:36:59;8.40;99.90
10660;DHT22;5378;53.206;13.316;2024-03-22T00:39:44;8.50;99.90
10660;DHT22;5378;53.206;13.316;2024-03-22T00:42:29;8.50;99.90
10660;DHT22;5378;53.206;13.316;2024-03-22T00:45:13;8.50;99.90
10660;DHT22;5378;53.206;13.316;2024-03-22T00:47:58;8.50;99.90
10660;DHT22;5378;53.206;13.316;2024-03-22T00:50:42;11.40;99.90
10660;DHT22;5378;53.206;13.316;2024-03-22T00:53:28;8.50;99.90
10660;DHT22;5378;53.206;13.316;2024-03-22T00:56:13;8.50;99.90
10660;DHT22;5378;53.206;13.316;2024-03-22T00:58:57;8.50;99.90
10660;DHT22;5378;53.206;13.316;2024-03-22T01:01:42;8.50;99.90
10660;DHT22;5378;53.206;13.316;2024-03-22T01:04:26;8.50;99.90
10660;DHT22;5378;53.206;13.316;2024-03-22T01:07:11;8.50;99.90
10660;DHT22;5378;53.206;13.316;2024-03-22T01:09:55;8.50;99.90
10660;DHT22;5378;53.206;13.316;2024-03-22T01:12:39;8.50;99.90
10660;DHT22;5378;53.206;13.316;2024-03-22T01:15:24;8.50;99.90
10660;DHT22;5378;53.206;13.316;2024-03-22T01:18:09;8.50;99.90
10660;DHT22;5378;53.206;13.316;2024-03-22T01:20:53;8.50;99.90
10660;DHT22;5378;53.206;13.316;2024-03-22T01:23:38;8.60;99.90
10660;DHT22;5378;53.206;13.316;2024-03-22T01:26:22;8.60;99.90
10660;DHT22;5378;53.206;13.316;2024-03-22T01:29:08;8.60;99.90
10660;DHT22;5378;53.206;13.316;2024-03-22T01:31:52;8.60;99.90
10660;DHT22;5378;53.206;13.316;2024-03-22T01:34:37;8.60;99.90
10660;DHT22;5378;53.206;13.316;2024-03-22T01:37:21;8.50;99.90
10660;DHT22;5378;53.206;13.316;2024-03-22T01:40:06;8.70;99.90
10660;DHT22;5378;53.206;13.316;2024-03-22T01:42:55;8.60;99.90
10660;DHT22;5378;53.206;13.316;2024-03-22T01:45:40;8.60;99.90
10660;DHT22;5378;53.206;13.316;2024-03-22T01:48:24;8.60;99.90
10660;DHT22;5378;53.206;13.316;2024-03-22T01:51:09;8.60;99.90
10660;DHT22;5378;53.206;13.316;2024-03-22T01:53:55;8.60;99.90
10660;DHT22;5378;53.206;13.316;2024-03-22T01:56:40;8.60;99.90
10660;DHT22;5378;53.206;13.316;2024-03-22T01:59:25;8.60;99.90
10660;DHT22;5378;53.206;13.316;2024-03-22T02:02:10;8.60;99.90
10660;DHT22;5378;53.206;13.316;2024-03-22T02:04:56;8.60;99.90
10660;DHT22;5378;53.206;13.316;2024-03-22T02:07:41;8.60;99.90
10660;DHT22;5378;53.206;13.316;2024-03-22T02:10:26;8.60;99.90
10660;DHT22;5378;53.206;13.316;2024-03-22T02:13:10;8.50;99.90
10660;DHT22;5378;53.206;13.316;2024-03-22T02:15:55;8.60;99.90
10660;DHT22;5378;53.206;13.316;2024-03-22T02:18:40;8.60;99.90
10660;DHT22;5378;53.206;13.316;2024-03-22T02:21:24;8.60;99.90
10660;DHT22;5378;53.206;13.316;2024-03-22T02:24:09;8.60;99.90
10660;DHT22;5378;53.206;13.316;2024-03-22T02:26:54;8.60;99.90
10660;DHT22;5378;53.206;13.316;2024-03-22T02:29:38;8.70;99.90
10660;DHT22;5378;53.206;13.316;2024-03-22T02:32:22;8.60;99.90
10660;DHT22;5378;53.206;13.316;2024-03-22T02:35:07;8.60;99.90
10660;DHT22;5378;53.206;13.316;2024-03-22T02:37:52;8.60;99.90
10660;DHT22;5378;53.206;13.316;2024-03-22T02:40:36;8.60;99.90
10660;DHT22;5378;53.206;13.316;2024-03-22T02:43:20;8.60;99.90
10660;DHT22;5378;53.206;13.316;2024-03-22T02:46:05;8.60;99.90
10660;DHT22;5378;53.206;13.316;2024-03-22T02:48:50;8.70;99.90
10660;DHT22;5378;53.206;13.316;2024-03-22T02:51:34;8.80;99.90
10660;DHT22;5378;53.206;13.316;2024-03-22T02:54:19;8.70;99.90
10660;DHT22;5378;53.206;13.316;2024-03-22T02:57:03;8.60;99.90
10660;DHT22;5378;53.206;13.316;2024-03-22T02:59:48;8.70;99.90
10660;DHT22;5378;53.206;13.316;2024-03-22T03:02:33;8.70;99.90
10660;DHT22;5378;53.206;13.316;2024-03-22T03:05:17;8.70;99.90
10660;DHT22;5378;53.206;13.316;2024-03-22T03:08:01;8.70;99.90
10660;DHT22;5378;53.206;13.316;2024-03-22T03:10:48;8.80;99.90
10660;DHT22;5378;53.206;13.316;2024-03-22T03:13:32;8.80;99.90
10660;DHT22;5378;53.206;13.316;2024-03-22T03:16:17;8.70;99.90
10660;DHT22;5378;53.206;13.316;2024-03-22T03:19:01;8.80;99.90
10660;DHT22;5378;53.206;13.316;2024-03-22T03:21:46;8.80;99.90
10660;DHT22;5378;53.206;13.316;2024-03-22T03:24:30;8.80;99.90
10660;DHT22;5378;53.206;13.316;2024-03-22T03:27:15;8.80;99.90
10660;DHT22;5378;53.206;13.316;2024-03-22T03:30:00;8.80;99.90
10660;DHT22;5378;53.206;13.316;2024-03-22T03:32:45;8.80;99.90
10660;DHT22;5378;53.206;13.316;2024-03-22T03:35:30;8.90;99.90
10660;DHT22;5378;53.206;13.316;2024-03-22T03:38:14;8.80;99.90
10660;DHT22;5378;53.206;13.316;2024-03-22T03:40:59;8.80;99.90
10660;DHT22;5378;53.206;13.316;2024-03-22T03:43:44;8.80;99.90
10660;DHT22;5378;53.206;13.316;2024-03-22T03:46:28;8.80;99.90
10660;DHT22;5378;53.206;13.316;2024-03-22T03:49:13;8.80;99.90
10660;DHT22;5378;53.206;13.316;2024-03-22T03:51:58;8.90;99.90
10660;DHT22;5378;53.206;13.316;2024-03-22T03:54:42;8.80;99.90
10660;DHT22;5378;53.206;13.316;2024-03-22T03:57:26;8.90;99.90
10660;DHT22;5378;53.206;13.316;2024-03-22T04:00:11;8.90;99.90
10660;DHT22;5378;53.206;13.316;2024-03-22T04:02:56;8.90;99.90
10660;DHT22;5378;53.206;13.316;2024-03-22T04:05:41;9.00;99.90
10660;DHT22;5378;53.206;13.316;2024-03-22T04:08:25;9.00;99.90
10660;DHT22;5378;53.206;13.316;2024-03-22T04:11:10;9.00;99.90
10660;DHT22;5378;53.206;13.316;2024-03-22T04:13:56;9.00;99.90
10660;DHT22;5378;53.206;13.316;2024-03-22T04:16:40;9.00;99.90
10660;DHT22;5378;53.206;13.316;2024-03-22T04:19:24;9.00;99.90
10660;DHT22;5378;53.206;13.316;2024-03-22T04:22:09;9.00;99.90
10660;DHT22;5378;53.206;13.316;2024-03-22T04:24:54;7.60;99.90
10660;DHT22;5378;53.206;13.316;2024-03-22T04:27:39;9.00;99.90
10660;DHT22;5378;53.206;13.316;2024-03-22T04:30:24;9.00;99.90
10660;DHT22;5378;53.206;13.316;2024-03-22T04:33:08;9.00;99.90
10660;DHT22;5378;53.206;13.316;2024-03-22T04:35:54;9.10;99.90
10660;DHT22;5378;53.206;13.316;2024-03-22T04:38:38;9.10;99.90
10660;DHT22;5378;53.206;13.316;2024-03-22T04:41:23;9.00;99.90
10660;DHT22;5378;53.206;13.316;2024-03-22T04:44:08;9.10;99.90
10660;DHT22;5378;53.206;13.316;2024-03-22T04:46:52;9.10;99.90
10660;DHT22;5378;53.206;13.316;2024-03-22T04:49:37;9.20;99.90
10660;DHT22;5378;53.206;13.316;2024-03-22T04:52:22;9.20;99.90
10660;DHT22;5378;53.206;13.316;2024-03-22T04:55:06;9.10;99.90
10660;DHT22;5378;53.206;13.316;2024-03-22T04:57:52;9.10;99.90
10660;DHT22;5378;53.206;13.316;2024-03-22T05:00:37;9.20;99.90
10660;DHT22;5378;53.206;13.316;2024-03-22T05:03:21;9.20;99.90
10660;DHT22;5378;53.206;13.316;2024-03-22T05:06:06;9.20;99.90
10660;DHT22;5378;53.206;13.316;2024-03-22T05:08:51;9.20;99.90
10660;DHT22;5378;53.206;13.316;2024-03-22T05:11:36;9.00;99.90
10660;DHT22;5378;53.206;13.316;2024-03-22T05:14:21;9.10;99.90
10660;DHT22;5378;53.206;13.316;2024-03-22T05:17:06;9.20;99.90
10660;DHT22;5378;53.206;13.316;2024-03-22T05:19:50;9.20;99.90
10660;DHT22;5378;53.206;13.316;2024-03-22T05:22:35;9.20;99.90
10660;DHT22;5378;53.206;13.316;2024-03-22T05:25:19;9.20;99.90
10660;DHT22;5378;53.206;13.316;2024-03-22T05:28:04;9.20;99.90
10660;DHT22;5378;53.206;13.316;2024-03-22T05:30:48;9.20;99.90
10660;DHT22;5378;53.206;13.316;2024-03-22T05:33:33;9.30;99.90
10660;DHT22;5378;53.206;13.316;2024-03-22T05:36:17;9.20;99.90
10660;DHT22;5378;53.206;13.316;2024-03-22T05:39:02;9.30;99.90
10660;DHT22;5378;53.206;13.316;2024-03-22T05:41:46;9.30;99.90
10660;DHT22;5378;53.206;13.316;2024-03-22T05:44:31;9.30;99.90
10660;DHT22;5378;53.206;13.316;2024-03-22T05:47:15;9.30;99.90
10660;DHT22;5378;53.206;13.316;2024-03-22T05:50:00;9.40;99.90
10660;DHT22;5378;53.206;13.316;2024-03-22T05:52:46;9.40;99.90
10660;DHT22;5378;53.206;13.316;2024-03-22T05:55:31;9.50;99.90
10660;DHT22;5378;53.206;13.316;2024-03-22T05:58:15;9.50;99.90
10660;DHT22;5378;53.206;13.316;2024-03-22T06:01:00;9.50;99.90
10660;DHT22;5378;53.206;13.316;2024-03-22T06:03:45;9.50;99.90
10660;DHT22;5378;53.206;13.316;2024-03-22T06:06:29;9.60;99.90
10660;DHT22;5378;53.206;13.316;2024-03-22T06:09:14;9.60;99.90
10660;DHT22;5378;53.206;13.316;2024-03-22T06:12:04;9.70;99.90
10660;DHT22;5378;53.206;13.316;2024-03-22T06:14:49;9.70;99.90
10660;DHT22;5378;53.206;13.316;2024-03-22T06:17:35;9.70;99.90
10660;DHT22;5378;53.206;13.316;2024-03-22T06:20:20;9.70;99.90
10660;DHT22;5378;53.206;13.316;2024-03-22T06:23:04;9.80;99.90
10660;DHT22;5378;53.206;13.316;2024-03-22T06:25:53;9.90;99.90
10660;DHT22;5378;53.206;13.316;2024-03-22T06:28:38;10.00;99.90
10660;DHT22;5378;53.206;13.316;2024-03-22T06:31:22;10.10;99.90
10660;DHT22;5378;53.206;13.316;2024-03-22T06:34:07;10.10;99.90
10660;DHT22;5378;53.206;13.316;2024-03-22T06:36:51;10.10;99.90
10660;DHT22;5378;53.206;13.316;2024-03-22T06:39:36;10.20;99.90
10660;DHT22;5378;53.206;13.316;2024-03-22T06:42:21;10.10;99.90
10660;DHT22;5378;53.206;13.316;2024-03-22T06:45:05;10.10;99.90
10660;DHT22;5378;53.206;13.316;2024-03-22T06:47:50;10.10;99.90
10660;DHT22;5378;53.206;13.316;2024-03-22T06:50:34;10.00;99.90
10660;DHT22;5378;53.206;13.316;2024-03-22T06:53:19;10.00;99.90
10660;DHT22;5378;53.206;13.316;2024-03-22T06:56:04;10.10;99.90
10660;DHT22;5378;53.206;13.316;2024-03-22T06:58:48;10.00;99.90
10660;DHT22;5378;53.206;13.316;2024-03-22T07:01:33;10.10;99.90
10660;DHT22;5378;53.206;13.316;2024-03-22T07:04:17;10.10;99.90
10660;DHT22;5378;53.206;13.316;2024-03-22T07:07:02;10.10;99.90
10660;DHT22;5378;53.206;13.316;2024-03-22T07:09:47;10.10;99.90
10660;DHT22;5378;53.206;13.316;2024-03-22T07:12:32;10.20;99.90
10660;DHT22;5378;53.206;13.316;2024-03-22T07:15:16;10.20;99.90
10660;DHT22;5378;53.206;13.316;2024-03-22T07:18:01;10.20;99.90
10660;DHT22;5378;53.206;13.316;2024-03-22T07:20:46;10.30;99.90
10660;DHT22;5378;53.206;13.316;2024-03-22T07:23:32;10.30;99.90
10660;DHT22;5378;53.206;13.316;2024-03-22T07:26:17;10.40;99.90
10660;DHT22;5378;53.206;13.316;2024-03-22T07:29:01;10.30;99.90
10660;DHT22;5378;53.206;13.316;2024-03-22T07:31:46;10.40;99.90
10660;DHT22;5378;53.206;13.316;2024-03-22T07:34:31;10.40;99.90
10660;DHT22;5378;53.206;13.316;2024-03-22T07:37:16;10.50;99.90
10660;DHT22;5378;53.206;13.316;2024-03-22T07:40:02;10.50;99.90
10660;DHT22;5378;53.206;13.316;2024-03-22T07:42:47;10.50;99.90
10660;DHT22;5378;53.206;13.316;2024-03-22T07:45:34;10.50;99.90
10660;DHT22;5378;53.206;13.316;2024-03-22T07:48:19;10.60;99.90
10660;DHT22;5378;53.206;13.316;2024-03-22T07:51:04;10.50;99.90
10660;DHT22;5378;53.206;13.316;2024-03-22T07:53:48;10.50;99.90
10660;DHT22;5378;53.206;13.316;2024-03-22T07:56:33;10.60;99.90
10660;DHT22;5378;53.206;13.316;2024-03-22T07:59:17;10.70;99.90
10660;DHT22;5378;53.206;13.316;2024-03-22T08:02:02;10.80;99.90
10660;DHT22;5378;53.206;13.316;2024-03-22T08:04:47;10.80;99.90
10660;DHT22;5378;53.206;13.316;2024-03-22T08:07:32;10.90;99.90
10660;DHT22;5378;53.206;13.316;2024-03-22T08:10:16;11.10;99.90
10660;DHT22;5378;53.206;13.316;2024-03-22T08:13:01;11.20;99.90
10660;DHT22;5378;53.206;13.316;2024-03-22T08:15:46;11.40;99.90
10660;DHT22;5378;53.206;13.316;2024-03-22T08:18:31;11.50;99.90
10660;DHT22;5378;53.206;13.316;2024-03-22T08:21:17;11.50;99.90
10660;DHT22;5378;53.206;13.316;2024-03-22T08:24:01;11.60;99.90
10660;DHT22;5378;53.206;13.316;2024-03-22T08:26:45;11.70;99.90
10660;DHT22;5378;53.206;13.316;2024-03-22T08:29:31;11.70;99.90
10660;DHT22;5378;53.206;13.316;2024-03-22T08:32:16;11.80;99.90
10660;DHT22;5378;53.206;13.316;2024-03-22T08:35:00;11.80;99.90
10660;DHT22;5378;53.206;13.316;2024-03-22T08:37:45;11.80;99.90
10660;DHT22;5378;53.206;13.316;2024-03-22T08:40:29;11.80;99.90
10660;DHT22;5378;53.206;13.316;2024-03-22T08:43:14;11.80;99.90
10660;DHT22;5378;53.206;13.316;2024-03-22T08:45:59;11.90;99.90
10660;DHT22;5378;53.206;13.316;2024-03-22T08:48:43;12.10;99.90
10660;DHT22;5378;53.206;13.316;2024-03-22T08:51:28;12.10;99.90
10660;DHT22;5378;53.206;13.316;2024-03-22T08:54:12;12.10;99.90
10660;DHT22;5378;53.206;13.316;2024-03-22T08:56:57;12.20;99.90
10660;DHT22;5378;53.206;13.316;2024-03-22T08:59:41;12.30;99.90
10660;DHT22;5378;53.206;13.316;2024-03-22T09:02:26;12.40;99.90
10660;DHT22;5378;53.206;13.316;2024-03-22T09:05:11;12.60;99.90
10660;DHT22;5378;53.206;13.316;2024-03-22T09:07:55;12.70;99.90
10660;DHT22;5378;53.206;13.316;2024-03-22T09:10:41;12.80;99.90
10660;DHT22;5378;53.206;13.316;2024-03-22T09:13:25;12.90;99.90
10660;DHT22;5378;53.206;13.316;2024-03-22T09:16:10;13.10;99.90
10660;DHT22;5378;53.206;13.316;2024-03-22T09:18:54;13.20;99.90
10660;DHT22;5378;53.206;13.316;2024-03-22T09:21:39;13.40;99.90
10660;DHT22;5378;53.206;13.316;2024-03-22T09:24:23;13.70;99.90
10660;DHT22;5378;53.206;13.316;2024-03-22T09:27:08;14.00;99.90
10660;DHT22;5378;53.206;13.316;2024-03-22T09:29:55;14.20;99.90
10660;DHT22;5378;53.206;13.316;2024-03-22T09:32:40;14.20;99.90
10660;DHT22;5378;53.206;13.316;2024-03-22T09:35:24;14.30;99.90
10660;DHT22;5378;53.206;13.316;2024-03-22T09:38:09;14.40;99.90
10660;DHT22;5378;53.206;13.316;2024-03-22T09:40:54;14.60;99.90
10660;DHT22;5378;53.206;13.316;2024-03-22T09:43:39;14.70;99.90
10660;DHT22;5378;53.206;13.316;2024-03-22T09:46:24;14.70;99.90
10660;DHT22;5378;53.206;13.316;2024-03-22T09:49:10;14.70;99.90
10660;DHT22;5378;53.206;13.316;2024-03-22T09:51:56;14.70;99.90
10660;DHT22;5378;53.206;13.316;2024-03-22T09:54:44;14.70;99.90
10660;DHT22;5378;53.206;13.316;2024-03-22T09:57:28;14.70;99.90
10660;DHT22;5378;53.206;13.316;2024-03-22T10:00:14;14.80;99.90
10660;DHT22;5378;53.206;13.316;2024-03-22T10:03:01;14.80;99.90
10660;DHT22;5378;53.206;13.316;2024-03-22T10:05:46;14.70;99.90
10660;DHT22;5378;53.206;13.316;2024-03-22T10:08:32;14.60;99.90
10660;DHT22;5378;53.206;13.316;2024-03-22T10:11:16;14.70;99.90
10660;DHT22;5378;53.206;13.316;2024-03-22T10:14:01;14.70;99.90
10660;DHT22;5378;53.206;13.316;2024-03-22T10:16:47;14.80;99.90
10660;DHT22;5378;53.206;13.316;2024-03-22T10:19:31;15.00;99.90
10660;DHT22;5378;53.206;13.316;2024-03-22T10:22:16;15.10;99.90
10660;DHT22;5378;53.206;13.316;2024-03-22T10:25:04;15.10;99.90
10660;DHT22;5378;53.206;13.316;2024-03-22T10:27:50;15.00;99.90
10660;DHT22;5378;53.206;13.316;2024-03-22T10:30:36;15.00;99.90
10660;DHT22;5378;53.206;13.316;2024-03-22T10:33:22;14.90;99.90
10660;DHT22;5378;53.206;13.316;2024-03-22T10:36:08;15.00;99.90
10660;DHT22;5378;53.206;13.316;2024-03-22T10:38:55;15.20;99.90
10660;DHT22;5378;53.206;13.316;2024-03-22T10:41:40;15.50;99.90
10660;DHT22;5378;53.206;13.316;2024-03-22T10:44:28;15.70;99.90
10660;DHT22;5378;53.206;13.316;2024-03-22T10:47:15;15.80;99.90
10660;DHT22;5378;53.206;13.316;2024-03-22T10:50:09;15.50;99.90
10660;DHT22;5378;53.206;13.316;2024-03-22T10:52:58;15.50;99.90
10660;DHT22;5378;53.206;13.316;2024-03-22T10:55:46;15.20;99.90
10660;DHT22;5378;53.206;13.316;2024-03-22T10:58:31;14.90;99.90
10660;DHT22;5378;53.206;13.316;2024-03-22T11:01:26;14.60;99.90
10660;DHT22;5378;53.206;13.316;2024-03-22T11:04:10;14.20;99.90
10660;DHT22;5378;53.206;13.316;2024-03-22T11:06:56;14.00;99.90
10660;DHT22;5378;53.206;13.316;2024-03-22T11:09:52;13.80;99.90
10660;DHT22;5378;53.206;13.316;2024-03-22T11:12:37;13.60;99.90
10660;DHT22;5378;53.206;13.316;2024-03-22T11:15:22;13.60;99.90
10660;DHT22;5378;53.206;13.316;2024-03-22T11:18:07;13.50;99.90
10660;DHT22;5378;53.206;13.316;2024-03-22T11:20:52;13.70;99.90
10660;DHT22;5378;53.206;13.316;2024-03-22T11:23:37;13.70;99.90
10660;DHT22;5378;53.206;13.316;2024-03-22T11:26:21;13.80;99.90
10660;DHT22;5378;53.206;13.316;2024-03-22T11:29:06;13.80;99.90
10660;DHT22;5378;53.206;13.316;2024-03-22T11:31:53;13.90;99.90
10660;DHT22;5378;53.206;13.316;2024-03-22T11:34:38;14.10;99.90
10660;DHT22;5378;53.206;13.316;2024-03-22T11:37:23;14.10;99.90
10660;DHT22;5378;53.206;13.316;2024-03-22T11:40:11;14.10;99.90
10660;DHT22;5378;53.206;13.316;2024-03-22T11:42:57;14.20;99.90
10660;DHT22;5378;53.206;13.316;2024-03-22T11:45:42;14.20;99.90
10660;DHT22;5378;53.206;13.316;2024-03-22T11:48:27;14.20;99.90
10660;DHT22;5378;53.206;13.316;2024-03-22T11:51:11;14.10;99.90
10660;DHT22;5378;53.206;13.316;2024-03-22T11:53:56;14.20;99.90
10660;DHT22;5378;53.206;13.316;2024-03-22T11:56:41;14.10;99.90
10660;DHT22;5378;53.206;13.316;2024-03-22T11:59:25;14.10;99.90
10660;DHT22;5378;53.206;13.316;2024-03-22T12:02:10;14.10;99.90
10660;DHT22;5378;53.206;13.316;2024-03-22T12:04:55;14.10;99.90
10660;DHT22;5378;53.206;13.316;2024-03-22T12:07:40;14.10;99.90
10660;DHT22;5378;53.206;13.316;2024-03-22T12:10:25;13.90;99.90
10660;DHT22;5378;53.206;13.316;2024-03-22T12:13:09;13.80;99.90
10660;DHT22;5378;53.206;13.316;2024-03-22T12:15:54;13.70;99.90
10660;DHT22;5378;53.206;13.316;2024-03-22T12:18:39;13.70;99.90
10660;DHT22;5378;53.206;13.316;2024-03-22T12:21:24;13.50;99.90
10660;DHT22;5378;53.206;13.316;2024-03-22T12:24:08;13.50;99.90
10660;DHT22;5378;53.206;13.316;2024-03-22T12:26:53;13.40;99.90
10660;DHT22;5378;53.206;13.316;2024-03-22T12:29:38;13.30;99.90
10660;DHT22;5378;53.206;13.316;2024-03-22T12:32:22;13.20;99.90
10660;DHT22;5378;53.206;13.316;2024-03-22T12:35:07;13.00;99.90
10660;DHT22;5378;53.206;13.316;2024-03-22T12:37:52;13.00;99.90
10660;DHT22;5378;53.206;13.316;2024-03-22T12:40:38;13.00;99.90
10660;DHT22;5378;53.206;13.316;2024-03-22T12:43:22;12.90;99.90
10660;DHT22;5378;53.206;13.316;2024-03-22T12:46:06;13.00;99.90
10660;DHT22;5378;53.206;13.316;2024-03-22T12:48:51;13.00;99.90
10660;DHT22;5378;53.206;13.316;2024-03-22T12:51:36;13.00;99.90
10660;DHT22;5378;53.206;13.316;2024-03-22T12:54:22;13.00;99.90
10660;DHT22;5378;53.206;13.316;2024-03-22T12:57:07;13.00;99.90
10660;DHT22;5378;53.206;13.316;2024-03-22T12:59:52;12.90;99.90
10660;DHT22;5378;53.206;13.316;2024-03-22T13:02:36;13.00;99.90
10660;DHT22;5378;53.206;13.316;2024-03-22T13:05:20;12.90;99.90
10660;DHT22;5378;53.206;13.316;2024-03-22T13:08:05;13.00;99.90
10660;DHT22;5378;53.206;13.316;2024-03-22T13:10:50;13.00;99.90
10660;DHT22;5378;53.206;13.316;2024-03-22T13:13:37;13.00;99.90
10660;DHT22;5378;53.206;13.316;2024-03-22T13:16:22;12.90;99.90
10660;DHT22;5378;53.206;13.316;2024-03-22T13:19:07;13.00;99.90
10660;DHT22;5378;53.206;13.316;2024-03-22T13:21:58;13.00;99.90
10660;DHT22;5378;53.206;13.316;2024-03-22T13:24:42;12.90;99.90
10660;DHT22;5378;53.206;13.316;2024-03-22T13:27:27;13.00;99.90
10660;DHT22;5378;53.206;13.316;2024-03-22T13:30:12;12.90;99.90
10660;DHT22;5378;53.206;13.316;2024-03-22T13:32:59;12.90;99.90
10660;DHT22;5378;53.206;13.316;2024-03-22T13:35:45;12.90;99.90
10660;DHT22;5378;53.206;13.316;2024-03-22T13:38:30;12.90;99.90
10660;DHT22;5378;53.206;13.316;2024-03-22T13:41:15;12.90;99.90
10660;DHT22;5378;53.206;13.316;2024-03-22T13:44:00;12.90;99.90
10660;DHT22;5378;53.206;13.316;2024-03-22T13:46:50;12.90;99.90
10660;DHT22;5378;53.206;13.316;2024-03-22T13:49:35;11.50;99.90
10660;DHT22;5378;53.206;13.316;2024-03-22T13:52:20;12.90;99.90
10660;DHT22;5378;53.206;13.316;2024-03-22T13:55:07;12.80;99.90
10660;DHT22;5378;53.206;13.316;2024-03-22T13:57:52;12.80;99.90
10660;DHT22;5378;53.206;13.316;2024-03-22T14:00:36;12.90;99.90
10660;DHT22;5378;53.206;13.316;2024-03-22T14:03:21;12.90;99.90
10660;DHT22;5378;53.206;13.316;2024-03-22T14:06:05;12.90;99.90
10660;DHT22;5378;53.206;13.316;2024-03-22T14:08:50;12.90;99.90
10660;DHT22;5378;53.206;13.316;2024-03-22T14:11:39;12.80;99.90
10660;DHT22;5378;53.206;13.316;2024-03-22T14:14:23;12.80;99.90
10660;DHT22;5378;53.206;13.316;2024-03-22T14:17:08;12.90;99.90
10660;DHT22;5378;53.206;13.316;2024-03-22T14:19:52;12.90;99.90
10660;DHT22;5378;53.206;13.316;2024-03-22T14:22:38;12.90;99.90
10660;DHT22;5378;53.206;13.316;2024-03-22T14:25:24;12.90;99.90
10660;DHT22;5378;53.206;13.316;2024-03-22T14:28:09;12.90;99.90
10660;DHT22;5378;53.206;13.316;2024-03-22T14:30:54;12.80;99.90
10660;DHT22;5378;53.206;13.316;2024-03-22T14:33:40;12.80;99.90
10660;DHT22;5378;53.206;13.316;2024-03-22T14:36:25;12.80;99.90
10660;DHT22;5378;53.206;13.316;2024-03-22T14:39:09;12.80;99.90
10660;DHT22;5378;53.206;13.316;2024-03-22T14:41:54;12.90;99.90
10660;DHT22;5378;53.206;13.316;2024-03-22T14:44:39;12.90;99.90
10660;DHT22;5378;53.206;13.316;2024-03-22T14:47:24;12.90;99.90
10660;DHT22;5378;53.206;13.316;2024-03-22T14:50:09;12.80;99.90
10660;DHT22;5378;53.206;13.316;2024-03-22T14:52:54;12.80;99.90
10660;DHT22;5378;53.206;13.316;2024-03-22T14:55:38;12.80;99.90
10660;DHT22;5378;53.206;13.316;2024-03-22T14:58:23;12.80;99.90
10660;DHT22;5378;53.206;13.316;2024-03-22T15:01:07;12.80;99.90
10660;DHT22;5378;53.206;13.316;2024-03-22T15:03:53;14.10;99.90
10660;DHT22;5378;53.206;13.316;2024-03-22T15:06:38;12.80;99.90
10660;DHT22;5378;53.206;13.316;2024-03-22T15:09:23;12.80;99.90
10660;DHT22;5378;53.206;13.316;2024-03-22T15:12:07;12.80;99.90
10660;DHT22;5378;53.206;13.316;2024-03-22T15:14:53;12.80;99.90
10660;DHT22;5378;53.206;13.316;2024-03-22T15:17:38;12.70;99.90
10660;DHT22;5378;53.206;13.316;2024-03-22T15:20:22;12.70;99.90
10660;DHT22;5378;53.206;13.316;2024-03-22T15:23:07;12.60;99.90
10660;DHT22;5378;53.206;13.316;2024-03-22T15:25:52;12.70;99.90
10660;DHT22;5378;53.206;13.316;2024-03-22T15:28:37;12.60;99.90
10660;DHT22;5378;53.206;13.316;2024-03-22T15:31:21;12.60;99.90
10660;DHT22;5378;53.206;13.316;2024-03-22T15:34:06;12.50;99.90
10660;DHT22;5378;53.206;13.316;2024-03-22T15:36:51;12.50;99.90
10660;DHT22;5378;53.206;13.316;2024-03-22T15:39:35;12.50;99.90
10660;DHT22;5378;53.206;13.316;2024-03-22T15:42:20;12.50;99.90
10660;DHT22;5378;53.206;13.316;2024-03-22T15:45:04;12.50;99.90
10660;DHT22;5378;53.206;13.316;2024-03-22T15:47:52;12.50;99.90
10660;DHT22;5378;53.206;13.316;2024-03-22T15:50:37;12.50;99.90
10660;DHT22;5378;53.206;13.316;2024-03-22T15:53:22;12.40;99.90
10660;DHT22;5378;53.206;13.316;2024-03-22T15:56:07;12.50;99.90
10660;DHT22;5378;53.206;13.316;2024-03-22T15:58:52;12.40;99.90
10660;DHT22;5378;53.206;13.316;2024-03-22T16:01:41;12.40;99.90
10660;DHT22;5378;53.206;13.316;2024-03-22T16:04:26;12.40;99.90
10660;DHT22;5378;53.206;13.316;2024-03-22T16:07:11;12.40;99.90
10660;DHT22;5378;53.206;13.316;2024-03-22T16:09:55;12.30;99.90
10660;DHT22;5378;53.206;13.316;2024-03-22T16:12:40;12.30;99.90
10660;DHT22;5378;53.206;13.316;2024-03-22T16:15:25;12.30;99.90
10660;DHT22;5378;53.206;13.316;2024-03-22T16:18:10;12.30;99.90
10660;DHT22;5378;53.206;13.316;2024-03-22T16:20:55;12.20;99.90
10660;DHT22;5378;53.206;13.316;2024-03-22T16:23:39;13.40;99.90
10660;DHT22;5378;53.206;13.316;2024-03-22T16:26:24;12.20;99.90
10660;DHT22;5378;53.206;13.316;2024-03-22T16:29:08;12.10;99.90
10660;DHT22;5378;53.206;13.316;2024-03-22T16:31:53;12.10;99.90
10660;DHT22;5378;53.206;13.316;2024-03-22T16:34:38;12.10;99.90
10660;DHT22;5378;53.206;13.316;2024-03-22T16:37:23;12.10;99.90
10660;DHT22;5378;53.206;13.316;2024-03-22T16:40:09;12.10;99.90
10660;DHT22;5378;53.206;13.316;2024-03-22T16:42:54;12.00;99.90
10660;DHT22;5378;53.206;13.316;2024-03-22T16:45:38;12.00;99.90
10660;DHT22;5378;53.206;13.316;2024-03-22T16:48:23;12.00;99.90
10660;DHT22;5378;53.206;13.316;2024-03-22T16:51:08;12.00;99.90
10660;DHT22;5378;53.206;13.316;2024-03-22T16:53:52;12.00;99.90
10660;DHT22;5378;53.206;13.316;2024-03-22T16:56:37;12.00;99.90
10660;DHT22;5378;53.206;13.316;2024-03-22T16:59:21;12.00;99.90
10660;DHT22;5378;53.206;13.316;2024-03-22T17:02:06;12.00;99.90
10660;DHT22;5378;53.206;13.316;2024-03-22T17:04:52;12.00;99.90
10660;DHT22;5378;53.206;13.316;2024-03-22T17:07:37;12.00;99.90
10660;DHT22;5378;53.206;13.316;2024-03-22T17:10:22;12.00;99.90
10660;DHT22;5378;53.206;13.316;2024-03-22T17:13:06;12.00;99.90
10660;DHT22;5378;53.206;13.316;2024-03-22T17:15:51;12.00;99.90
10660;DHT22;5378;53.206;13.316;2024-03-22T17:18:40;12.00;99.90
10660;DHT22;5378;53.206;13.316;2024-03-22T17:21:24;12.00;99.90
10660;DHT22;5378;53.206;13.316;2024-03-22T17:24:09;12.00;99.90
10660;DHT22;5378;53.206;13.316;2024-03-22T17:26:54;12.00;99.90
10660;DHT22;5378;53.206;13.316;2024-03-22T17:29:39;12.00;99.90